sensor_id;sensor_type;location;lat;lon;timestamp;pressure;altitude;pressure_sealevel;temperature;humidity
63035;BME280;59750;53.356;-1.458;2022-10-16T00:02:06;98886.03;;;8.66;98.93
63035;BME280;59750;53.356;-1.458;2022-10-16T00:04:31;98875.56;;;8.66;97.72
63035;BME280;59750;53.356;-1.458;2022-10-16T00:06:58;98873.47;;;8.70;97.80
63035;BME280;59750;53.356;-1.458;2022-10-16T00:09:24;98879.53;;;8.71;98.02
63035;BME280;59750;53.356;-1.458;2022-10-16T00:11:50;98868.09;;;8.72;97.35
63035;BME280;59750;53.356;-1.458;2022-10-16T00:14:16;98881.88;;;8.74;98.06
63035;BME280;59750;53.356;-1.458;2022-10-16T00:16:42;98873.34;;;8.72;98.80
63035;BME280;59750;53.356;-1.458;2022-10-16T00:19:10;98873.34;;;8.72;98.90
63035;BME280;59750;53.356;-1.458;2022-10-16T00:21:37;98879.69;;;8.69;99.48
63035;BME280;59750;53.356;-1.458;2022-10-16T00:24:06;98863.41;;;8.65;99.60
63035;BME280;59750;53.356;-1.458;2022-10-16T00:26:34;98858.16;;;8.65;99.05
63035;BME280;59750;53.356;-1.458;2022-10-16T00:29:00;98861.19;;;8.71;99.25
63035;BME280;59750;53.356;-1.458;2022-10-16T00:31:27;98872.50;;;8.71;99.96
63035;BME280;59750;53.356;-1.458;2022-10-16T00:33:53;98877.34;;;8.76;99.30
63035;BME280;59750;53.356;-1.458;2022-10-16T00:36:21;98863.69;;;8.82;98.75
63035;BME280;59750;53.356;-1.458;2022-10-16T00:38:51;98895.16;;;8.82;99.84
63035;BME280;59750;53.356;-1.458;2022-10-16T00:41:19;98882.19;;;8.90;99.19
63035;BME280;59750;53.356;-1.458;2022-10-16T00:43:48;98875.56;;;8.86;99.71
63035;BME280;59750;53.356;-1.458;2022-10-16T00:48:52;98894.34;;;8.81;100.00
63035;BME280;59750;53.356;-1.458;2022-10-16T00:51:24;98900.69;;;8.79;100.00
63035;BME280;59750;53.356;-1.458;2022-10-16T00:53:51;98893.78;;;8.78;100.00
63035;BME280;59750;53.356;-1.458;2022-10-16T00:56:18;98892.97;;;8.77;100.00
63035;BME280;59750;53.356;-1.458;2022-10-16T00:58:44;98899.84;;;8.78;100.00
63035;BME280;59750;53.356;-1.458;2022-10-16T01:01:10;98910.22;;;8.80;100.00
63035;BME280;59750;53.356;-1.458;2022-10-16T01:03:37;98890.34;;;8.77;100.00
63035;BME280;59750;53.356;-1.458;2022-10-16T01:08:43;98916.13;;;8.82;100.00
63035;BME280;59750;53.356;-1.458;2022-10-16T01:13:52;98909.22;;;8.90;98.84
63035;BME280;59750;53.356;-1.458;2022-10-16T01:16:29;98914.63;;;8.89;99.28
63035;BME280;59750;53.356;-1.458;2022-10-16T01:19:05;98934.91;;;8.87;99.47
63035;BME280;59750;53.356;-1.458;2022-10-16T01:21:38;98922.75;;;8.86;97.85
63035;BME280;59750;53.356;-1.458;2022-10-16T01:35:02;98918.91;;;8.90;98.03
63035;BME280;59750;53.356;-1.458;2022-10-16T01:40:17;98937.94;;;8.92;96.60
63035;BME280;59750;53.356;-1.458;2022-10-16T01:42:51;98951.47;;;8.97;95.47
63035;BME280;59750;53.356;-1.458;2022-10-16T01:45:19;98948.16;;;8.95;96.73
63035;BME280;59750;53.356;-1.458;2022-10-16T01:47:47;98955.47;;;8.91;97.89
63035;BME280;59750;53.356;-1.458;2022-10-16T01:50:18;98958.91;;;8.92;98.24
63035;BME280;59750;53.356;-1.458;2022-10-16T01:52:49;98963.88;;;8.95;97.92
63035;BME280;59750;53.356;-1.458;2022-10-16T01:55:24;98964.16;;;8.92;100.00
63035;BME280;59750;53.356;-1.458;2022-10-16T01:57:53;98967.75;;;8.91;100.00
63035;BME280;59750;53.356;-1.458;2022-10-16T02:00:21;98963.47;;;8.80;100.00
63035;BME280;59750;53.356;-1.458;2022-10-16T02:02:51;98968.28;;;8.75;100.00
63035;BME280;59750;53.356;-1.458;2022-10-16T02:05:45;98973.22;;;8.68;100.00
63035;BME280;59750;53.356;-1.458;2022-10-16T02:08:12;98967.69;;;8.62;100.00
63035;BME280;59750;53.356;-1.458;2022-10-16T02:10:38;98974.19;;;8.58;100.00
63035;BME280;59750;53.356;-1.458;2022-10-16T02:13:08;98979.28;;;8.50;100.00
63035;BME280;59750;53.356;-1.458;2022-10-16T02:15:35;98993.72;;;8.44;100.00
63035;BME280;59750;53.356;-1.458;2022-10-16T02:18:03;98996.34;;;8.44;100.00
63035;BME280;59750;53.356;-1.458;2022-10-16T02:20:34;98996.34;;;8.44;100.00
63035;BME280;59750;53.356;-1.458;2022-10-16T02:23:01;98997.16;;;8.45;100.00
63035;BME280;59750;53.356;-1.458;2022-10-16T02:25:32;98999.91;;;8.43;100.00
63035;BME280;59750;53.356;-1.458;2022-10-16T02:28:03;99009.72;;;8.41;100.00
63035;BME280;59750;53.356;-1.458;2022-10-16T02:33:06;99020.19;;;8.41;100.00
63035;BME280;59750;53.356;-1.458;2022-10-16T02:35:33;99029.97;;;8.39;100.00
63035;BME280;59750;53.356;-1.458;2022-10-16T02:38:00;99037.84;;;8.39;100.00
63035;BME280;59750;53.356;-1.458;2022-10-16T02:40:27;99036.75;;;8.42;100.00
63035;BME280;59750;53.356;-1.458;2022-10-16T02:42:54;99035.22;;;8.39;100.00
63035;BME280;59750;53.356;-1.458;2022-10-16T02:45:22;99047.34;;;8.40;100.00
63035;BME280;59750;53.356;-1.458;2022-10-16T02:47:49;99049.13;;;8.40;100.00
63035;BME280;59750;53.356;-1.458;2022-10-16T02:50:15;99058.66;;;8.41;100.00
63035;BME280;59750;53.356;-1.458;2022-10-16T02:52:41;99061.16;;;8.42;100.00
63035;BME280;59750;53.356;-1.458;2022-10-16T02:55:07;99064.66;;;8.52;100.00
63035;BME280;59750;53.356;-1.458;2022-10-16T02:57:33;99067.16;;;8.54;100.00
63035;BME280;59750;53.356;-1.458;2022-10-16T02:59:59;99063.69;;;8.53;100.00
63035;BME280;59750;53.356;-1.458;2022-10-16T03:02:24;99067.72;;;8.57;100.00
63035;BME280;59750;53.356;-1.458;2022-10-16T03:04:50;99072.00;;;8.58;100.00
63035;BME280;59750;53.356;-1.458;2022-10-16T03:07:16;99082.47;;;8.58;99.83
63035;BME280;59750;53.356;-1.458;2022-10-16T03:09:42;99072.25;;;8.55;100.00
63035;BME280;59750;53.356;-1.458;2022-10-16T03:12:08;99095.41;;;8.50;100.00
63035;BME280;59750;53.356;-1.458;2022-10-16T03:14:33;99086.97;;;8.47;100.00
63035;BME280;59750;53.356;-1.458;2022-10-16T03:17:00;99105.91;;;8.50;100.00
63035;BME280;59750;53.356;-1.458;2022-10-16T03:19:26;99111.38;;;8.47;100.00
63035;BME280;59750;53.356;-1.458;2022-10-16T03:21:51;99112.09;;;8.49;100.00
63035;BME280;59750;53.356;-1.458;2022-10-16T03:24:17;99118.28;;;8.48;100.00
63035;BME280;59750;53.356;-1.458;2022-10-16T03:26:43;99122.59;;;8.49;100.00
63035;BME280;59750;53.356;-1.458;2022-10-16T03:29:08;99121.63;;;8.50;100.00
63035;BME280;59750;53.356;-1.458;2022-10-16T03:31:35;99122.44;;;8.51;100.00
63035;BME280;59750;53.356;-1.458;2022-10-16T03:34:01;99132.09;;;8.50;100.00
63035;BME280;59750;53.356;-1.458;2022-10-16T03:36:27;99137.34;;;8.50;100.00
63035;BME280;59750;53.356;-1.458;2022-10-16T03:38:53;99149.97;;;8.45;100.00
63035;BME280;59750;53.356;-1.458;2022-10-16T03:41:19;99157.84;;;8.45;100.00
63035;BME280;59750;53.356;-1.458;2022-10-16T03:43:44;99154.66;;;8.42;100.00
63035;BME280;59750;53.356;-1.458;2022-10-16T03:46:10;99173.13;;;8.40;100.00
63035;BME280;59750;53.356;-1.458;2022-10-16T03:48:36;99182.78;;;8.40;100.00
63035;BME280;59750;53.356;-1.458;2022-10-16T03:51:02;99182.06;;;8.38;100.00
63035;BME280;59750;53.356;-1.458;2022-10-16T03:53:28;99190.78;;;8.38;100.00
63035;BME280;59750;53.356;-1.458;2022-10-16T03:55:53;99196.00;;;8.38;100.00
63035;BME280;59750;53.356;-1.458;2022-10-16T03:58:19;99211.16;;;8.34;100.00
63035;BME280;59750;53.356;-1.458;2022-10-16T04:00:45;99215.78;;;8.31;100.00
63035;BME280;59750;53.356;-1.458;2022-10-16T04:03:13;99229.16;;;8.28;100.00
63035;BME280;59750;53.356;-1.458;2022-10-16T04:05:39;99229.41;;;8.25;100.00
63035;BME280;59750;53.356;-1.458;2022-10-16T04:08:06;99228.69;;;8.23;100.00
63035;BME280;59750;53.356;-1.458;2022-10-16T04:10:32;99241.69;;;8.24;100.00
63035;BME280;59750;53.356;-1.458;2022-10-16T04:12:58;99259.06;;;8.25;100.00
63035;BME280;59750;53.356;-1.458;2022-10-16T04:15:26;99256.78;;;8.21;100.00
63035;BME280;59750;53.356;-1.458;2022-10-16T04:17:52;99262.97;;;8.20;100.00
63035;BME280;59750;53.356;-1.458;2022-10-16T04:20:19;99263.22;;;8.17;100.00
63035;BME280;59750;53.356;-1.458;2022-10-16T04:22:45;99270.25;;;8.16;100.00
63035;BME280;59750;53.356;-1.458;2022-10-16T04:25:11;99275.63;;;8.15;100.00
63035;BME280;59750;53.356;-1.458;2022-10-16T04:27:38;99287.31;;;8.11;100.00
63035;BME280;59750;53.356;-1.458;2022-10-16T04:30:05;99295.53;;;8.06;100.00
63035;BME280;59750;53.356;-1.458;2022-10-16T04:32:31;99307.94;;;8.04;100.00
63035;BME280;59750;53.356;-1.458;2022-10-16T04:34:57;99306.97;;;8.05;100.00
63035;BME280;59750;53.356;-1.458;2022-10-16T04:37:25;99316.88;;;8.01;100.00
63035;BME280;59750;53.356;-1.458;2022-10-16T04:39:51;99322.34;;;7.98;100.00
63035;BME280;59750;53.356;-1.458;2022-10-16T04:42:19;99328.78;;;7.94;100.00
63035;BME280;59750;53.356;-1.458;2022-10-16T04:44:45;99344.97;;;7.88;100.00
63035;BME280;59750;53.356;-1.458;2022-10-16T04:47:11;99345.44;;;7.82;100.00
63035;BME280;59750;53.356;-1.458;2022-10-16T04:49:37;99352.84;;;7.77;100.00
63035;BME280;59750;53.356;-1.458;2022-10-16T04:52:03;99351.41;;;7.73;100.00
63035;BME280;59750;53.356;-1.458;2022-10-16T04:54:29;99355.00;;;7.72;100.00
63035;BME280;59750;53.356;-1.458;2022-10-16T04:56:55;99369.28;;;7.68;100.00
63035;BME280;59750;53.356;-1.458;2022-10-16T04:59:24;99372.81;;;7.67;100.00
63035;BME280;59750;53.356;-1.458;2022-10-16T05:01:50;99372.81;;;7.67;100.00
63035;BME280;59750;53.356;-1.458;2022-10-16T05:04:15;99373.06;;;7.64;100.00
63035;BME280;59750;53.356;-1.458;2022-10-16T05:06:42;99385.44;;;7.62;100.00
63035;BME280;59750;53.356;-1.458;2022-10-16T05:09:08;99381.38;;;7.58;100.00
63035;BME280;59750;53.356;-1.458;2022-10-16T05:11:35;99386.50;;;7.59;100.00
63035;BME280;59750;53.356;-1.458;2022-10-16T05:14:01;99395.53;;;7.55;100.00
63035;BME280;59750;53.356;-1.458;2022-10-16T05:16:27;99399.94;;;7.55;100.00
63035;BME280;59750;53.356;-1.458;2022-10-16T05:18:53;99403.03;;;7.49;100.00
63035;BME280;59750;53.356;-1.458;2022-10-16T05:21:20;99403.38;;;7.44;100.00
63035;BME280;59750;53.356;-1.458;2022-10-16T05:23:45;99410.53;;;7.42;100.00
63035;BME280;59750;53.356;-1.458;2022-10-16T05:26:11;99422.97;;;7.38;100.00
63035;BME280;59750;53.356;-1.458;2022-10-16T05:28:37;99431.28;;;7.32;100.00
63035;BME280;59750;53.356;-1.458;2022-10-16T05:31:05;99435.81;;;7.30;100.00
63035;BME280;59750;53.356;-1.458;2022-10-16T05:33:33;99440.19;;;7.30;100.00
63035;BME280;59750;53.356;-1.458;2022-10-16T05:36:23;99449.72;;;7.31;100.00
63035;BME280;59750;53.356;-1.458;2022-10-16T05:38:50;99451.84;;;7.26;100.00
63035;BME280;59750;53.356;-1.458;2022-10-16T05:41:16;99449.34;;;7.24;100.00
63035;BME280;59750;53.356;-1.458;2022-10-16T05:43:47;99456.25;;;7.25;100.00
63035;BME280;59750;53.356;-1.458;2022-10-16T05:46:13;99464.56;;;7.19;100.00
63035;BME280;59750;53.356;-1.458;2022-10-16T05:48:39;99468.25;;;7.17;100.00
63035;BME280;59750;53.356;-1.458;2022-10-16T05:51:07;99468.06;;;7.07;100.00
63035;BME280;59750;53.356;-1.458;2022-10-16T05:53:37;99470.78;;;7.05;100.00
63035;BME280;59750;53.356;-1.458;2022-10-16T05:56:05;99466.38;;;7.06;100.00
63035;BME280;59750;53.356;-1.458;2022-10-16T05:58:34;99464.72;;;7.05;100.00
63035;BME280;59750;53.356;-1.458;2022-10-16T06:01:05;99480.53;;;7.03;100.00
63035;BME280;59750;53.356;-1.458;2022-10-16T06:03:33;99480.63;;;7.02;100.00
63035;BME280;59750;53.356;-1.458;2022-10-16T06:06:08;99491.31;;;6.99;100.00
63035;BME280;59750;53.356;-1.458;2022-10-16T06:08:35;99491.06;;;6.91;100.00
63035;BME280;59750;53.356;-1.458;2022-10-16T06:11:06;99497.97;;;6.92;100.00
63035;BME280;59750;53.356;-1.458;2022-10-16T06:13:33;99499.13;;;6.88;100.00
63035;BME280;59750;53.356;-1.458;2022-10-16T06:16:00;99497.56;;;6.85;100.00
63035;BME280;59750;53.356;-1.458;2022-10-16T06:18:27;99496.44;;;6.76;100.00
63035;BME280;59750;53.356;-1.458;2022-10-16T06:20:55;99502.81;;;6.72;100.00
63035;BME280;59750;53.356;-1.458;2022-10-16T06:23:21;99504.50;;;6.73;100.00
63035;BME280;59750;53.356;-1.458;2022-10-16T06:25:48;99509.94;;;6.70;100.00
63035;BME280;59750;53.356;-1.458;2022-10-16T06:28:15;99512.56;;;6.70;100.00
63035;BME280;59750;53.356;-1.458;2022-10-16T06:30:41;99515.50;;;6.66;100.00
63035;BME280;59750;53.356;-1.458;2022-10-16T06:33:11;99523.69;;;6.61;100.00
63035;BME280;59750;53.356;-1.458;2022-10-16T06:35:37;99523.56;;;6.63;100.00
63035;BME280;59750;53.356;-1.458;2022-10-16T06:38:02;99530.78;;;6.59;100.00
63035;BME280;59750;53.356;-1.458;2022-10-16T06:40:28;99543.97;;;6.58;100.00
63035;BME280;59750;53.356;-1.458;2022-10-16T06:42:55;99550.03;;;6.58;100.00
63035;BME280;59750;53.356;-1.458;2022-10-16T06:45:20;99551.88;;;6.56;100.00
63035;BME280;59750;53.356;-1.458;2022-10-16T06:47:46;99559.22;;;6.51;100.00
63035;BME280;59750;53.356;-1.458;2022-10-16T06:50:13;99559.66;;;6.45;100.00
63035;BME280;59750;53.356;-1.458;2022-10-16T06:52:42;99575.31;;;6.45;100.00
63035;BME280;59750;53.356;-1.458;2022-10-16T06:55:18;99569.38;;;6.43;100.00
63035;BME280;59750;53.356;-1.458;2022-10-16T06:57:47;99578.97;;;6.42;100.00
63035;BME280;59750;53.356;-1.458;2022-10-16T07:00:13;99580.75;;;6.42;100.00
63035;BME280;59750;53.356;-1.458;2022-10-16T07:02:39;99576.78;;;6.49;100.00
63035;BME280;59750;53.356;-1.458;2022-10-16T07:05:05;99594.00;;;6.51;100.00
63035;BME280;59750;53.356;-1.458;2022-10-16T07:07:31;99590.06;;;6.46;100.00
63035;BME280;59750;53.356;-1.458;2022-10-16T07:09:57;99598.72;;;6.46;100.00
63035;BME280;59750;53.356;-1.458;2022-10-16T07:12:23;99596.00;;;6.48;100.00
63035;BME280;59750;53.356;-1.458;2022-10-16T07:14:49;99602.91;;;6.49;100.00
63035;BME280;59750;53.356;-1.458;2022-10-16T07:17:17;99610.94;;;6.46;100.00
63035;BME280;59750;53.356;-1.458;2022-10-16T07:19:44;99615.03;;;6.50;100.00
63035;BME280;59750;53.356;-1.458;2022-10-16T07:22:10;99615.84;;;6.50;100.00
63035;BME280;59750;53.356;-1.458;2022-10-16T07:24:36;99635.50;;;6.43;100.00
63035;BME280;59750;53.356;-1.458;2022-10-16T07:27:01;99638.44;;;6.39;100.00
63035;BME280;59750;53.356;-1.458;2022-10-16T07:29:27;99630.41;;;6.42;100.00
63035;BME280;59750;53.356;-1.458;2022-10-16T07:31:53;99633.53;;;6.47;100.00
63035;BME280;59750;53.356;-1.458;2022-10-16T07:34:19;99644.09;;;6.45;100.00
63035;BME280;59750;53.356;-1.458;2022-10-16T07:36:48;99641.34;;;6.47;100.00
63035;BME280;59750;53.356;-1.458;2022-10-16T07:39:15;99642.94;;;6.49;100.00
63035;BME280;59750;53.356;-1.458;2022-10-16T07:41:41;99649.50;;;6.55;100.00
63035;BME280;59750;53.356;-1.458;2022-10-16T07:44:07;99649.22;;;6.60;100.00
63035;BME280;59750;53.356;-1.458;2022-10-16T07:46:33;99651.81;;;6.72;100.00
63035;BME280;59750;53.356;-1.458;2022-10-16T07:49:02;99659.72;;;6.96;100.00
63035;BME280;59750;53.356;-1.458;2022-10-16T07:51:28;99666.63;;;7.34;100.00
63035;BME280;59750;53.356;-1.458;2022-10-16T07:53:54;99670.34;;;7.79;100.00
63035;BME280;59750;53.356;-1.458;2022-10-16T07:56:21;99673.63;;;8.29;99.03
63035;BME280;59750;53.356;-1.458;2022-10-16T07:58:47;99684.19;;;8.74;97.07
63035;BME280;59750;53.356;-1.458;2022-10-16T08:01:16;99695.03;;;9.25;94.28
63035;BME280;59750;53.356;-1.458;2022-10-16T08:03:46;99689.38;;;9.63;89.58
63035;BME280;59750;53.356;-1.458;2022-10-16T08:06:12;99687.34;;;10.31;89.33
63035;BME280;59750;53.356;-1.458;2022-10-16T08:08:38;99689.91;;;10.63;85.18
63035;BME280;59750;53.356;-1.458;2022-10-16T08:11:03;99699.25;;;10.97;82.82
63035;BME280;59750;53.356;-1.458;2022-10-16T08:13:30;99708.59;;;11.61;81.07
63035;BME280;59750;53.356;-1.458;2022-10-16T08:15:56;99717.13;;;12.13;78.36
63035;BME280;59750;53.356;-1.458;2022-10-16T08:18:23;99722.47;;;12.79;75.12
63035;BME280;59750;53.356;-1.458;2022-10-16T08:20:56;99722.66;;;12.48;74.14
63035;BME280;59750;53.356;-1.458;2022-10-16T08:23:24;99734.72;;;12.70;73.67
63035;BME280;59750;53.356;-1.458;2022-10-16T08:25:52;99735.06;;;12.94;71.73
63035;BME280;59750;53.356;-1.458;2022-10-16T08:28:19;99722.41;;;14.08;69.58
63035;BME280;59750;53.356;-1.458;2022-10-16T08:30:45;99732.03;;;14.70;66.38
63035;BME280;59750;53.356;-1.458;2022-10-16T08:33:11;99734.22;;;14.75;63.60
63035;BME280;59750;53.356;-1.458;2022-10-16T08:35:38;99741.56;;;14.81;65.43
63035;BME280;59750;53.356;-1.458;2022-10-16T08:38:04;99742.44;;;14.90;62.31
63035;BME280;59750;53.356;-1.458;2022-10-16T08:40:33;99742.00;;;14.76;60.82
63035;BME280;59750;53.356;-1.458;2022-10-16T08:51:03;99778.81;;;16.32;56.48
63035;BME280;59750;53.356;-1.458;2022-10-16T08:53:38;99787.97;;;15.79;55.94
63035;BME280;59750;53.356;-1.458;2022-10-16T08:56:07;99791.72;;;15.34;59.71
63035;BME280;59750;53.356;-1.458;2022-10-16T08:58:33;99794.75;;;16.56;57.17
63035;BME280;59750;53.356;-1.458;2022-10-16T09:01:02;99796.03;;;17.34;57.45
63035;BME280;59750;53.356;-1.458;2022-10-16T09:06:10;99812.22;;;18.10;54.82
63035;BME280;59750;53.356;-1.458;2022-10-16T09:14:50;99838.63;;;17.09;57.43
63035;BME280;59750;53.356;-1.458;2022-10-16T09:16:48;99825.34;;;16.85;56.86
63035;BME280;59750;53.356;-1.458;2022-10-16T09:19:26;99828.28;;;16.65;57.80
63035;BME280;59750;53.356;-1.458;2022-10-16T09:21:55;99828.97;;;17.88;59.09
63035;BME280;59750;53.356;-1.458;2022-10-16T09:24:25;99838.66;;;18.12;54.44
63035;BME280;59750;53.356;-1.458;2022-10-16T09:26:51;99839.97;;;18.16;53.19
63035;BME280;59750;53.356;-1.458;2022-10-16T09:29:19;99838.50;;;18.13;53.58
63035;BME280;59750;53.356;-1.458;2022-10-16T09:31:46;99850.13;;;17.73;54.05
63035;BME280;59750;53.356;-1.458;2022-10-16T09:36:47;99845.63;;;19.65;49.69
63035;BME280;59750;53.356;-1.458;2022-10-16T09:39:13;99855.28;;;19.13;50.82
63035;BME280;59750;53.356;-1.458;2022-10-16T09:41:42;99847.47;;;19.79;49.17
63035;BME280;59750;53.356;-1.458;2022-10-16T09:44:34;99844.16;;;20.64;47.57
63035;BME280;59750;53.356;-1.458;2022-10-16T09:47:04;99854.44;;;20.46;46.96
63035;BME280;59750;53.356;-1.458;2022-10-16T09:49:30;99849.84;;;21.25;45.64
63035;BME280;59750;53.356;-1.458;2022-10-16T09:52:15;99856.19;;;21.45;44.72
63035;BME280;59750;53.356;-1.458;2022-10-16T09:54:51;99862.72;;;20.51;44.55
63035;BME280;59750;53.356;-1.458;2022-10-16T09:57:17;99868.00;;;21.08;46.07
63035;BME280;59750;53.356;-1.458;2022-10-16T09:59:47;99875.00;;;21.93;43.64
63035;BME280;59750;53.356;-1.458;2022-10-16T10:02:16;99873.25;;;21.79;45.44
63035;BME280;59750;53.356;-1.458;2022-10-16T10:04:53;99876.19;;;21.84;43.70
63035;BME280;59750;53.356;-1.458;2022-10-16T10:07:25;99882.31;;;22.12;43.00
63035;BME280;59750;53.356;-1.458;2022-10-16T10:09:54;99882.75;;;22.16;42.44
63035;BME280;59750;53.356;-1.458;2022-10-16T10:12:23;99885.31;;;21.96;41.70
63035;BME280;59750;53.356;-1.458;2022-10-16T10:14:56;99880.94;;;21.88;43.37
63035;BME280;59750;53.356;-1.458;2022-10-16T10:17:25;99870.44;;;21.52;43.09
63035;BME280;59750;53.356;-1.458;2022-10-16T10:20:15;99879.25;;;21.46;44.12
63035;BME280;59750;53.356;-1.458;2022-10-16T10:22:44;99880.97;;;21.60;43.12
63035;BME280;59750;53.356;-1.458;2022-10-16T10:25:18;99869.50;;;21.67;43.74
63035;BME280;59750;53.356;-1.458;2022-10-16T10:39:00;99888.56;;;21.29;46.32
63035;BME280;59750;53.356;-1.458;2022-10-16T10:49:48;99926.06;;;20.72;42.58
63035;BME280;59750;53.356;-1.458;2022-10-16T10:52:34;99923.91;;;20.46;40.93
63035;BME280;59750;53.356;-1.458;2022-10-16T11:03:25;99942.63;;;20.31;45.78
63035;BME280;59750;53.356;-1.458;2022-10-16T11:06:02;99946.22;;;19.94;46.96
63035;BME280;59750;53.356;-1.458;2022-10-16T11:08:36;99945.66;;;19.46;47.02
63035;BME280;59750;53.356;-1.458;2022-10-16T11:11:15;99948.47;;;19.30;47.30
63035;BME280;59750;53.356;-1.458;2022-10-16T11:21:14;99947.56;;;18.61;49.12
63035;BME280;59750;53.356;-1.458;2022-10-16T11:26:35;99943.22;;;18.29;50.81
63035;BME280;59750;53.356;-1.458;2022-10-16T11:29:13;99934.81;;;18.17;47.92
63035;BME280;59750;53.356;-1.458;2022-10-16T11:31:45;99944.22;;;18.28;49.28
63035;BME280;59750;53.356;-1.458;2022-10-16T11:34:32;99947.44;;;18.15;48.16
63035;BME280;59750;53.356;-1.458;2022-10-16T11:37:14;99941.47;;;18.05;49.38
63035;BME280;59750;53.356;-1.458;2022-10-16T11:39:44;99943.09;;;18.22;49.78
63035;BME280;59750;53.356;-1.458;2022-10-16T11:42:21;99946.06;;;18.27;49.84
63035;BME280;59750;53.356;-1.458;2022-10-16T11:45:02;99946.25;;;18.57;50.54
63035;BME280;59750;53.356;-1.458;2022-10-16T11:55:34;99941.56;;;17.64;51.04
63035;BME280;59750;53.356;-1.458;2022-10-16T12:06:46;99946.75;;;16.50;51.13
63035;BME280;59750;53.356;-1.458;2022-10-16T12:09:30;99944.91;;;16.08;54.10
63035;BME280;59750;53.356;-1.458;2022-10-16T12:11:57;99938.50;;;15.85;53.61
63035;BME280;59750;53.356;-1.458;2022-10-16T12:14:43;99935.78;;;15.77;54.72
63035;BME280;59750;53.356;-1.458;2022-10-16T12:17:34;99936.75;;;15.68;54.96
63035;BME280;59750;53.356;-1.458;2022-10-16T12:22:56;99953.16;;;15.54;53.82
63035;BME280;59750;53.356;-1.458;2022-10-16T12:30:23;99970.06;;;15.09;58.49
63035;BME280;59750;53.356;-1.458;2022-10-16T12:33:02;99976.81;;;14.76;57.71
63035;BME280;59750;53.356;-1.458;2022-10-16T12:35:31;99968.63;;;14.69;57.02
63035;BME280;59750;53.356;-1.458;2022-10-16T12:38:07;99978.16;;;14.62;58.56
63035;BME280;59750;53.356;-1.458;2022-10-16T12:40:36;99974.84;;;14.60;58.44
63035;BME280;59750;53.356;-1.458;2022-10-16T12:46:00;99972.78;;;14.54;59.79
63035;BME280;59750;53.356;-1.458;2022-10-16T12:48:26;99976.44;;;14.43;58.93
63035;BME280;59750;53.356;-1.458;2022-10-16T12:50:53;99983.97;;;14.38;59.85
63035;BME280;59750;53.356;-1.458;2022-10-16T12:53:24;99992.19;;;14.35;58.75
63035;BME280;59750;53.356;-1.458;2022-10-16T12:56:13;99992.34;;;14.34;59.50
63035;BME280;59750;53.356;-1.458;2022-10-16T13:10:18;99987.97;;;14.15;56.13
63035;BME280;59750;53.356;-1.458;2022-10-16T13:18:19;99998.34;;;13.99;60.94
63035;BME280;59750;53.356;-1.458;2022-10-16T13:21:11;99993.31;;;13.96;59.67
63035;BME280;59750;53.356;-1.458;2022-10-16T13:29:22;99985.00;;;13.81;59.80
63035;BME280;59750;53.356;-1.458;2022-10-16T13:31:49;99982.94;;;13.75;60.74
63035;BME280;59750;53.356;-1.458;2022-10-16T13:34:20;99976.28;;;13.71;59.14
63035;BME280;59750;53.356;-1.458;2022-10-16T13:36:49;99983.91;;;13.64;61.68
63035;BME280;59750;53.356;-1.458;2022-10-16T13:39:23;99985.06;;;13.52;60.42
63035;BME280;59750;53.356;-1.458;2022-10-16T13:42:22;99980.06;;;13.49;63.13
63035;BME280;59750;53.356;-1.458;2022-10-16T13:44:51;99989.66;;;13.40;64.57
63035;BME280;59750;53.356;-1.458;2022-10-16T13:47:22;99987.97;;;13.39;66.15
63035;BME280;59750;53.356;-1.458;2022-10-16T13:50:12;99988.94;;;13.38;63.41
63035;BME280;59750;53.356;-1.458;2022-10-16T13:52:39;99982.00;;;13.37;63.15
63035;BME280;59750;53.356;-1.458;2022-10-16T13:55:18;99979.06;;;13.40;63.78
63035;BME280;59750;53.356;-1.458;2022-10-16T13:57:45;99977.00;;;13.44;60.80
63035;BME280;59750;53.356;-1.458;2022-10-16T14:02:45;99988.94;;;13.57;61.66
63035;BME280;59750;53.356;-1.458;2022-10-16T14:05:16;99988.38;;;13.64;65.76
63035;BME280;59750;53.356;-1.458;2022-10-16T14:07:42;99996.59;;;13.60;65.34
63035;BME280;59750;53.356;-1.458;2022-10-16T14:10:28;99994.22;;;13.57;64.93
63035;BME280;59750;53.356;-1.458;2022-10-16T14:13:03;100005.34;;;13.42;62.30
63035;BME280;59750;53.356;-1.458;2022-10-16T14:15:31;99988.94;;;13.38;63.91
63035;BME280;59750;53.356;-1.458;2022-10-16T14:17:59;99979.50;;;13.36;60.96
63035;BME280;59750;53.356;-1.458;2022-10-16T14:20:29;99979.50;;;13.36;63.38
63035;BME280;59750;53.356;-1.458;2022-10-16T14:25:30;99998.97;;;13.15;62.49
63035;BME280;59750;53.356;-1.458;2022-10-16T14:30:51;100004.22;;;13.06;63.36
63035;BME280;59750;53.356;-1.458;2022-10-16T14:38:34;100005.84;;;12.87;61.70
63035;BME280;59750;53.356;-1.458;2022-10-16T14:41:01;100005.31;;;12.93;62.33
63035;BME280;59750;53.356;-1.458;2022-10-16T14:43:33;100007.41;;;12.99;63.17
63035;BME280;59750;53.356;-1.458;2022-10-16T14:46:03;100002.13;;;12.99;61.81
63035;BME280;59750;53.356;-1.458;2022-10-16T14:48:29;100005.19;;;13.05;64.14
63035;BME280;59750;53.356;-1.458;2022-10-16T14:50:56;100015.34;;;12.99;64.71
63035;BME280;59750;53.356;-1.458;2022-10-16T14:53:22;100008.94;;;12.92;62.91
63035;BME280;59750;53.356;-1.458;2022-10-16T14:55:48;100016.41;;;12.87;64.88
63035;BME280;59750;53.356;-1.458;2022-10-16T14:58:21;100022.38;;;12.80;61.39
63035;BME280;59750;53.356;-1.458;2022-10-16T15:00:49;100019.88;;;12.78;63.74
63035;BME280;59750;53.356;-1.458;2022-10-16T15:03:15;100022.66;;;12.77;64.26
63035;BME280;59750;53.356;-1.458;2022-10-16T15:05:41;100022.78;;;12.75;64.62
63035;BME280;59750;53.356;-1.458;2022-10-16T15:08:07;100016.09;;;12.71;63.42
63035;BME280;59750;53.356;-1.458;2022-10-16T15:10:38;100017.91;;;12.71;64.49
63035;BME280;59750;53.356;-1.458;2022-10-16T15:13:05;100012.78;;;12.69;64.60
63035;BME280;59750;53.356;-1.458;2022-10-16T15:15:35;100010.53;;;12.64;63.52
63035;BME280;59750;53.356;-1.458;2022-10-16T15:18:04;99996.50;;;12.64;65.02
63035;BME280;59750;53.356;-1.458;2022-10-16T15:20:34;99996.06;;;12.59;64.39
63035;BME280;59750;53.356;-1.458;2022-10-16T15:23:04;99990.09;;;12.57;65.73
63035;BME280;59750;53.356;-1.458;2022-10-16T15:25:43;99987.44;;;12.57;67.09